sensor_id;sensor_type;location;lat;lon;timestamp;P1;durP1;ratioP1;P2;durP2;ratioP2
30472;SDS011;17263;48.160;11.452;2023-03-19T00:01:55;22.57;;;15.90;;
30472;SDS011;17263;48.160;11.452;2023-03-19T00:04:22;22.77;;;15.83;;
30472;SDS011;17263;48.160;11.452;2023-03-19T00:06:49;22.83;;;15.47;;
30472;SDS011;17263;48.160;11.452;2023-03-19T00:09:15;26.80;;;17.33;;
30472;SDS011;17263;48.160;11.452;2023-03-19T00:11:42;22.13;;;16.93;;
30472;SDS011;17263;48.160;11.452;2023-03-19T00:14:08;26.07;;;17.10;;
30472;SDS011;17263;48.160;11.452;2023-03-19T00:16:34;27.00;;;17.23;;
30472;SDS011;17263;48.160;11.452;2023-03-19T00:19:01;21.83;;;15.40;;
30472;SDS011;17263;48.160;11.452;2023-03-19T00:21:28;21.97;;;15.67;;
30472;SDS011;17263;48.160;11.452;2023-03-19T00:23:54;23.70;;;15.57;;
30472;SDS011;17263;48.160;11.452;2023-03-19T00:26:26;22.60;;;15.43;;
30472;SDS011;17263;48.160;11.452;2023-03-19T00:28:53;19.90;;;14.27;;
30472;SDS011;17263;48.160;11.452;2023-03-19T00:31:20;19.40;;;14.33;;
30472;SDS011;17263;48.160;11.452;2023-03-19T00:33:46;20.77;;;14.30;;
30472;SDS011;17263;48.160;11.452;2023-03-19T00:36:13;21.00;;;14.90;;
30472;SDS011;17263;48.160;11.452;2023-03-19T00:38:41;20.03;;;14.77;;
30472;SDS011;17263;48.160;11.452;2023-03-19T00:41:07;23.00;;;14.50;;
30472;SDS011;17263;48.160;11.452;2023-03-19T00:43:34;21.10;;;15.03;;
30472;SDS011;17263;48.160;11.452;2023-03-19T00:46:00;21.27;;;16.07;;
30472;SDS011;17263;48.160;11.452;2023-03-19T00:48:26;20.93;;;16.10;;
30472;SDS011;17263;48.160;11.452;2023-03-19T00:50:52;19.87;;;15.57;;
30472;SDS011;17263;48.160;11.452;2023-03-19T00:53:18;21.77;;;15.50;;
30472;SDS011;17263;48.160;11.452;2023-03-19T00:55:44;20.53;;;15.53;;
30472;SDS011;17263;48.160;11.452;2023-03-19T00:58:11;19.63;;;14.40;;
30472;SDS011;17263;48.160;11.452;2023-03-19T01:00:37;18.90;;;13.37;;
30472;SDS011;17263;48.160;11.452;2023-03-19T01:03:04;19.67;;;14.30;;
30472;SDS011;17263;48.160;11.452;2023-03-19T01:05:31;20.83;;;14.50;;
30472;SDS011;17263;48.160;11.452;2023-03-19T01:07:59;22.33;;;14.87;;
30472;SDS011;17263;48.160;11.452;2023-03-19T01:10:25;19.10;;;13.23;;
30472;SDS011;17263;48.160;11.452;2023-03-19T01:12:51;18.17;;;13.83;;
30472;SDS011;17263;48.160;11.452;2023-03-19T01:15:17;19.80;;;13.77;;
30472;SDS011;17263;48.160;11.452;2023-03-19T01:17:43;21.00;;;13.53;;
30472;SDS011;17263;48.160;11.452;2023-03-19T01:20:10;19.87;;;14.37;;
30472;SDS011;17263;48.160;11.452;2023-03-19T01:22:38;20.97;;;14.10;;
30472;SDS011;17263;48.160;11.452;2023-03-19T01:25:07;16.97;;;13.37;;
30472;SDS011;17263;48.160;11.452;2023-03-19T01:27:34;18.60;;;13.23;;
30472;SDS011;17263;48.160;11.452;2023-03-19T01:30:00;19.27;;;12.63;;
30472;SDS011;17263;48.160;11.452;2023-03-19T01:32:26;18.00;;;12.47;;
30472;SDS011;17263;48.160;11.452;2023-03-19T01:34:52;17.43;;;12.23;;
30472;SDS011;17263;48.160;11.452;2023-03-19T01:37:19;18.47;;;13.17;;
30472;SDS011;17263;48.160;11.452;2023-03-19T01:39:45;17.33;;;12.23;;
30472;SDS011;17263;48.160;11.452;2023-03-19T01:42:11;19.80;;;12.47;;
30472;SDS011;17263;48.160;11.452;2023-03-19T01:44:38;17.80;;;11.83;;
30472;SDS011;17263;48.160;11.452;2023-03-19T01:47:13;19.27;;;13.33;;
30472;SDS011;17263;48.160;11.452;2023-03-19T01:49:42;15.70;;;11.30;;
30472;SDS011;17263;48.160;11.452;2023-03-19T01:52:12;12.87;;;10.30;;
30472;SDS011;17263;48.160;11.452;2023-03-19T01:54:39;13.80;;;10.07;;
30472;SDS011;17263;48.160;11.452;2023-03-19T01:57:07;14.97;;;9.90;;
30472;SDS011;17263;48.160;11.452;2023-03-19T01:59:39;17.30;;;10.43;;
30472;SDS011;17263;48.160;11.452;2023-03-19T02:02:23;12.87;;;10.17;;
30472;SDS011;17263;48.160;11.452;2023-03-19T02:04:56;13.47;;;9.57;;
30472;SDS011;17263;48.160;11.452;2023-03-19T02:07:29;15.90;;;9.60;;
30472;SDS011;17263;48.160;11.452;2023-03-19T02:09:57;12.93;;;9.33;;
30472;SDS011;17263;48.160;11.452;2023-03-19T02:12:25;14.47;;;9.03;;
30472;SDS011;17263;48.160;11.452;2023-03-19T02:14:52;14.60;;;8.33;;
30472;SDS011;17263;48.160;11.452;2023-03-19T02:17:19;10.80;;;8.43;;
30472;SDS011;17263;48.160;11.452;2023-03-19T02:22:22;15.50;;;8.53;;
30472;SDS011;17263;48.160;11.452;2023-03-19T02:24:56;11.03;;;7.77;;
30472;SDS011;17263;48.160;11.452;2023-03-19T02:27:30;10.83;;;7.47;;
30472;SDS011;17263;48.160;11.452;2023-03-19T02:29:56;9.77;;;6.87;;
30472;SDS011;17263;48.160;11.452;2023-03-19T02:32:22;11.53;;;6.70;;
30472;SDS011;17263;48.160;11.452;2023-03-19T02:34:48;11.63;;;7.03;;
30472;SDS011;17263;48.160;11.452;2023-03-19T02:37:25;8.87;;;7.10;;
30472;SDS011;17263;48.160;11.452;2023-03-19T02:39:55;12.50;;;7.17;;
30472;SDS011;17263;48.160;11.452;2023-03-19T02:42:32;12.53;;;7.10;;
30472;SDS011;17263;48.160;11.452;2023-03-19T02:44:58;10.23;;;6.57;;
30472;SDS011;17263;48.160;11.452;2023-03-19T02:47:24;9.73;;;7.40;;
30472;SDS011;17263;48.160;11.452;2023-03-19T02:49:51;8.53;;;6.57;;
30472;SDS011;17263;48.160;11.452;2023-03-19T02:52:19;9.97;;;7.30;;
30472;SDS011;17263;48.160;11.452;2023-03-19T02:54:45;11.47;;;7.13;;
30472;SDS011;17263;48.160;11.452;2023-03-19T02:57:12;10.00;;;7.23;;
30472;SDS011;17263;48.160;11.452;2023-03-19T02:59:39;9.70;;;6.80;;
30472;SDS011;17263;48.160;11.452;2023-03-19T03:02:06;12.17;;;6.77;;
30472;SDS011;17263;48.160;11.452;2023-03-19T03:04:32;9.83;;;6.50;;
30472;SDS011;17263;48.160;11.452;2023-03-19T03:06:59;9.20;;;6.13;;
30472;SDS011;17263;48.160;11.452;2023-03-19T03:09:26;9.63;;;6.40;;
30472;SDS011;17263;48.160;11.452;2023-03-19T03:11:52;14.23;;;6.57;;
30472;SDS011;17263;48.160;11.452;2023-03-19T03:14:18;10.67;;;6.57;;
30472;SDS011;17263;48.160;11.452;2023-03-19T03:16:44;11.23;;;6.60;;
30472;SDS011;17263;48.160;11.452;2023-03-19T03:19:10;8.60;;;6.33;;
30472;SDS011;17263;48.160;11.452;2023-03-19T03:21:36;9.57;;;6.67;;
30472;SDS011;17263;48.160;11.452;2023-03-19T03:24:03;8.43;;;6.13;;
30472;SDS011;17263;48.160;11.452;2023-03-19T03:26:29;7.33;;;6.07;;
30472;SDS011;17263;48.160;11.452;2023-03-19T03:28:55;8.83;;;6.00;;
30472;SDS011;17263;48.160;11.452;2023-03-19T03:31:21;8.23;;;5.70;;
30472;SDS011;17263;48.160;11.452;2023-03-19T03:33:47;7.10;;;5.30;;
30472;SDS011;17263;48.160;11.452;2023-03-19T03:36:13;8.83;;;5.50;;
30472;SDS011;17263;48.160;11.452;2023-03-19T03:38:39;8.23;;;5.57;;
30472;SDS011;17263;48.160;11.452;2023-03-19T03:41:05;8.37;;;5.73;;
30472;SDS011;17263;48.160;11.452;2023-03-19T03:43:32;7.80;;;5.63;;
30472;SDS011;17263;48.160;11.452;2023-03-19T03:45:58;9.20;;;5.80;;
30472;SDS011;17263;48.160;11.452;2023-03-19T03:48:24;8.13;;;5.57;;
30472;SDS011;17263;48.160;11.452;2023-03-19T03:50:50;7.40;;;5.50;;
30472;SDS011;17263;48.160;11.452;2023-03-19T03:53:16;7.77;;;5.80;;
30472;SDS011;17263;48.160;11.452;2023-03-19T03:55:42;6.67;;;5.53;;
30472;SDS011;17263;48.160;11.452;2023-03-19T03:58:08;7.73;;;5.50;;
30472;SDS011;17263;48.160;11.452;2023-03-19T04:00:35;8.83;;;5.80;;
30472;SDS011;17263;48.160;11.452;2023-03-19T04:03:01;9.20;;;5.10;;
30472;SDS011;17263;48.160;11.452;2023-03-19T04:05:27;7.30;;;5.27;;
30472;SDS011;17263;48.160;11.452;2023-03-19T04:07:53;7.93;;;5.57;;
30472;SDS011;17263;48.160;11.452;2023-03-19T04:10:20;7.67;;;5.43;;
30472;SDS011;17263;48.160;11.452;2023-03-19T04:12:46;10.37;;;5.70;;
30472;SDS011;17263;48.160;11.452;2023-03-19T04:15:12;8.93;;;5.90;;
30472;SDS011;17263;48.160;11.452;2023-03-19T04:17:38;12.30;;;6.30;;
30472;SDS011;17263;48.160;11.452;2023-03-19T04:20:05;8.03;;;5.93;;
30472;SDS011;17263;48.160;11.452;2023-03-19T04:22:32;6.93;;;5.50;;
30472;SDS011;17263;48.160;11.452;2023-03-19T04:24:58;6.90;;;5.13;;
30472;SDS011;17263;48.160;11.452;2023-03-19T04:27:24;9.67;;;5.70;;
30472;SDS011;17263;48.160;11.452;2023-03-19T04:29:50;7.93;;;5.33;;
30472;SDS011;17263;48.160;11.452;2023-03-19T04:32:16;7.73;;;5.03;;
30472;SDS011;17263;48.160;11.452;2023-03-19T04:34:42;8.30;;;5.37;;
30472;SDS011;17263;48.160;11.452;2023-03-19T04:37:08;8.57;;;5.17;;
30472;SDS011;17263;48.160;11.452;2023-03-19T04:39:35;8.53;;;5.60;;
30472;SDS011;17263;48.160;11.452;2023-03-19T04:42:01;8.30;;;5.63;;
30472;SDS011;17263;48.160;11.452;2023-03-19T04:44:29;7.87;;;5.10;;
30472;SDS011;17263;48.160;11.452;2023-03-19T04:46:55;6.87;;;5.40;;
30472;SDS011;17263;48.160;11.452;2023-03-19T04:49:22;6.90;;;5.43;;
30472;SDS011;17263;48.160;11.452;2023-03-19T04:51:49;6.77;;;5.00;;
30472;SDS011;17263;48.160;11.452;2023-03-19T04:54:15;6.73;;;5.60;;
30472;SDS011;17263;48.160;11.452;2023-03-19T04:56:41;8.27;;;5.70;;
30472;SDS011;17263;48.160;11.452;2023-03-19T04:59:07;5.90;;;4.90;;
30472;SDS011;17263;48.160;11.452;2023-03-19T05:01:35;9.03;;;5.17;;
30472;SDS011;17263;48.160;11.452;2023-03-19T05:04:01;6.53;;;5.07;;
30472;SDS011;17263;48.160;11.452;2023-03-19T05:06:27;7.77;;;5.30;;
30472;SDS011;17263;48.160;11.452;2023-03-19T05:08:53;7.63;;;5.33;;
30472;SDS011;17263;48.160;11.452;2023-03-19T05:11:19;7.07;;;5.40;;
30472;SDS011;17263;48.160;11.452;2023-03-19T05:13:45;7.93;;;6.00;;
30472;SDS011;17263;48.160;11.452;2023-03-19T05:16:11;7.10;;;5.50;;
30472;SDS011;17263;48.160;11.452;2023-03-19T05:18:38;8.93;;;4.97;;
30472;SDS011;17263;48.160;11.452;2023-03-19T05:21:04;6.97;;;5.40;;
30472;SDS011;17263;48.160;11.452;2023-03-19T05:23:30;6.43;;;5.00;;
30472;SDS011;17263;48.160;11.452;2023-03-19T05:25:57;7.53;;;5.20;;
30472;SDS011;17263;48.160;11.452;2023-03-19T05:28:25;7.33;;;5.70;;
30472;SDS011;17263;48.160;11.452;2023-03-19T05:30:51;6.73;;;5.30;;
30472;SDS011;17263;48.160;11.452;2023-03-19T05:33:17;8.53;;;5.70;;
30472;SDS011;17263;48.160;11.452;2023-03-19T05:35:44;7.73;;;5.50;;
30472;SDS011;17263;48.160;11.452;2023-03-19T05:38:10;5.70;;;5.13;;
30472;SDS011;17263;48.160;11.452;2023-03-19T05:40:36;13.23;;;6.17;;
30472;SDS011;17263;48.160;11.452;2023-03-19T05:43:02;8.20;;;5.90;;
30472;SDS011;17263;48.160;11.452;2023-03-19T05:45:28;7.13;;;5.73;;
30472;SDS011;17263;48.160;11.452;2023-03-19T05:47:54;8.47;;;6.30;;
30472;SDS011;17263;48.160;11.452;2023-03-19T05:50:21;6.53;;;5.53;;
30472;SDS011;17263;48.160;11.452;2023-03-19T05:52:47;7.87;;;5.87;;
30472;SDS011;17263;48.160;11.452;2023-03-19T05:55:13;7.93;;;6.47;;
30472;SDS011;17263;48.160;11.452;2023-03-19T05:57:39;8.40;;;6.63;;
30472;SDS011;17263;48.160;11.452;2023-03-19T06:00:06;9.60;;;7.17;;
30472;SDS011;17263;48.160;11.452;2023-03-19T06:02:34;9.73;;;7.07;;
30472;SDS011;17263;48.160;11.452;2023-03-19T06:05:00;8.40;;;7.00;;
30472;SDS011;17263;48.160;11.452;2023-03-19T06:07:26;14.87;;;7.93;;
30472;SDS011;17263;48.160;11.452;2023-03-19T06:09:53;12.77;;;8.23;;
30472;SDS011;17263;48.160;11.452;2023-03-19T06:12:19;10.93;;;8.13;;
30472;SDS011;17263;48.160;11.452;2023-03-19T06:14:45;10.33;;;7.73;;
30472;SDS011;17263;48.160;11.452;2023-03-19T06:17:12;10.93;;;8.33;;
30472;SDS011;17263;48.160;11.452;2023-03-19T06:19:38;10.50;;;8.27;;
30472;SDS011;17263;48.160;11.452;2023-03-19T06:22:04;10.67;;;7.83;;
30472;SDS011;17263;48.160;11.452;2023-03-19T06:24:30;9.77;;;7.47;;
30472;SDS011;17263;48.160;11.452;2023-03-19T06:26:56;8.87;;;7.87;;
30472;SDS011;17263;48.160;11.452;2023-03-19T06:29:22;10.97;;;7.97;;
30472;SDS011;17263;48.160;11.452;2023-03-19T06:31:48;12.10;;;8.10;;
30472;SDS011;17263;48.160;11.452;2023-03-19T06:34:14;9.07;;;7.90;;
30472;SDS011;17263;48.160;11.452;2023-03-19T06:36:40;13.20;;;7.43;;
30472;SDS011;17263;48.160;11.452;2023-03-19T06:39:06;8.27;;;7.37;;
30472;SDS011;17263;48.160;11.452;2023-03-19T06:41:33;8.10;;;6.93;;
30472;SDS011;17263;48.160;11.452;2023-03-19T06:43:59;8.63;;;7.27;;
30472;SDS011;17263;48.160;11.452;2023-03-19T06:46:25;9.53;;;7.80;;
30472;SDS011;17263;48.160;11.452;2023-03-19T06:48:51;10.80;;;7.33;;
30472;SDS011;17263;48.160;11.452;2023-03-19T06:51:17;9.57;;;7.43;;
30472;SDS011;17263;48.160;11.452;2023-03-19T06:53:43;9.43;;;7.60;;
30472;SDS011;17263;48.160;11.452;2023-03-19T06:56:09;10.97;;;8.10;;
30472;SDS011;17263;48.160;11.452;2023-03-19T06:58:35;10.47;;;7.83;;
30472;SDS011;17263;48.160;11.452;2023-03-19T07:01:02;8.07;;;7.00;;
30472;SDS011;17263;48.160;11.452;2023-03-19T07:03:28;8.00;;;7.13;;
30472;SDS011;17263;48.160;11.452;2023-03-19T07:05:54;8.03;;;7.23;;
30472;SDS011;17263;48.160;11.452;2023-03-19T07:08:20;11.13;;;7.37;;
30472;SDS011;17263;48.160;11.452;2023-03-19T07:10:46;8.67;;;6.50;;
30472;SDS011;17263;48.160;11.452;2023-03-19T07:13:12;8.77;;;6.60;;
30472;SDS011;17263;48.160;11.452;2023-03-19T07:15:39;9.33;;;7.00;;
30472;SDS011;17263;48.160;11.452;2023-03-19T07:18:05;12.27;;;6.87;;
30472;SDS011;17263;48.160;11.452;2023-03-19T07:20:31;9.30;;;6.80;;
30472;SDS011;17263;48.160;11.452;2023-03-19T07:22:57;7.80;;;7.00;;
30472;SDS011;17263;48.160;11.452;2023-03-19T07:25:23;10.87;;;6.67;;
30472;SDS011;17263;48.160;11.452;2023-03-19T07:27:50;8.27;;;6.63;;
30472;SDS011;17263;48.160;11.452;2023-03-19T07:30:16;8.40;;;6.00;;
30472;SDS011;17263;48.160;11.452;2023-03-19T07:32:42;7.40;;;5.33;;
30472;SDS011;17263;48.160;11.452;2023-03-19T07:35:08;7.37;;;5.10;;
30472;SDS011;17263;48.160;11.452;2023-03-19T07:37:35;6.43;;;4.73;;
30472;SDS011;17263;48.160;11.452;2023-03-19T07:40:01;4.83;;;4.43;;
30472;SDS011;17263;48.160;11.452;2023-03-19T07:42:27;6.07;;;4.57;;
30472;SDS011;17263;48.160;11.452;2023-03-19T07:44:53;6.90;;;4.63;;
30472;SDS011;17263;48.160;11.452;2023-03-19T07:47:19;7.87;;;4.53;;
30472;SDS011;17263;48.160;11.452;2023-03-19T07:49:46;6.27;;;4.30;;
30472;SDS011;17263;48.160;11.452;2023-03-19T07:52:12;5.23;;;3.90;;
30472;SDS011;17263;48.160;11.452;2023-03-19T07:54:38;7.53;;;4.10;;
30472;SDS011;17263;48.160;11.452;2023-03-19T07:57:05;6.87;;;4.70;;
30472;SDS011;17263;48.160;11.452;2023-03-19T07:59:31;5.27;;;4.37;;
30472;SDS011;17263;48.160;11.452;2023-03-19T08:01:57;4.77;;;4.20;;
30472;SDS011;17263;48.160;11.452;2023-03-19T08:04:23;5.23;;;4.50;;
30472;SDS011;17263;48.160;11.452;2023-03-19T08:06:49;6.10;;;4.53;;
30472;SDS011;17263;48.160;11.452;2023-03-19T08:09:15;5.43;;;4.30;;
30472;SDS011;17263;48.160;11.452;2023-03-19T08:11:41;6.43;;;4.53;;
30472;SDS011;17263;48.160;11.452;2023-03-19T08:14:07;4.90;;;4.33;;
30472;SDS011;17263;48.160;11.452;2023-03-19T08:16:33;5.73;;;4.37;;
30472;SDS011;17263;48.160;11.452;2023-03-19T08:18:59;5.47;;;4.17;;
30472;SDS011;17263;48.160;11.452;2023-03-19T08:21:25;6.27;;;4.03;;
30472;SDS011;17263;48.160;11.452;2023-03-19T08:23:51;4.97;;;4.40;;
30472;SDS011;17263;48.160;11.452;2023-03-19T08:26:17;4.77;;;4.10;;
30472;SDS011;17263;48.160;11.452;2023-03-19T08:28:44;4.50;;;4.10;;
30472;SDS011;17263;48.160;11.452;2023-03-19T08:31:11;6.13;;;4.40;;
30472;SDS011;17263;48.160;11.452;2023-03-19T08:33:38;4.90;;;4.40;;
30472;SDS011;17263;48.160;11.452;2023-03-19T08:36:06;5.13;;;4.60;;
30472;SDS011;17263;48.160;11.452;2023-03-19T08:38:33;5.63;;;4.57;;
30472;SDS011;17263;48.160;11.452;2023-03-19T08:40:59;5.50;;;4.40;;
30472;SDS011;17263;48.160;11.452;2023-03-19T08:43:27;6.13;;;3.70;;
30472;SDS011;17263;48.160;11.452;2023-03-19T08:45:53;5.43;;;4.17;;
30472;SDS011;17263;48.160;11.452;2023-03-19T08:48:19;5.10;;;3.70;;
30472;SDS011;17263;48.160;11.452;2023-03-19T08:50:50;7.60;;;4.50;;
30472;SDS011;17263;48.160;11.452;2023-03-19T08:53:18;4.97;;;4.00;;
30472;SDS011;17263;48.160;11.452;2023-03-19T08:55:44;5.40;;;4.20;;
30472;SDS011;17263;48.160;11.452;2023-03-19T08:58:15;4.83;;;3.90;;
30472;SDS011;17263;48.160;11.452;2023-03-19T09:00:41;5.17;;;4.07;;
30472;SDS011;17263;48.160;11.452;2023-03-19T09:03:07;5.13;;;3.73;;
30472;SDS011;17263;48.160;11.452;2023-03-19T09:05:33;5.33;;;3.60;;
30472;SDS011;17263;48.160;11.452;2023-03-19T09:08:00;4.47;;;4.07;;
30472;SDS011;17263;48.160;11.452;2023-03-19T09:10:26;9.60;;;7.73;;
30472;SDS011;17263;48.160;11.452;2023-03-19T09:12:52;6.57;;;4.90;;
30472;SDS011;17263;48.160;11.452;2023-03-19T09:15:18;4.60;;;3.73;;
30472;SDS011;17263;48.160;11.452;2023-03-19T09:17:45;6.00;;;3.80;;
30472;SDS011;17263;48.160;11.452;2023-03-19T09:20:11;6.80;;;4.23;;
30472;SDS011;17263;48.160;11.452;2023-03-19T09:22:37;5.30;;;4.63;;
30472;SDS011;17263;48.160;11.452;2023-03-19T09:25:03;5.20;;;3.93;;
30472;SDS011;17263;48.160;11.452;2023-03-19T09:27:30;4.60;;;3.57;;
30472;SDS011;17263;48.160;11.452;2023-03-19T09:29:56;5.30;;;3.73;;
30472;SDS011;17263;48.160;11.452;2023-03-19T09:32:22;6.23;;;4.30;;
30472;SDS011;17263;48.160;11.452;2023-03-19T09:34:48;5.47;;;4.33;;
30472;SDS011;17263;48.160;11.452;2023-03-19T09:37:14;4.50;;;3.87;;
30472;SDS011;17263;48.160;11.452;2023-03-19T09:39:40;5.63;;;3.97;;
30472;SDS011;17263;48.160;11.452;2023-03-19T09:44:52;5.37;;;4.17;;
30472;SDS011;17263;48.160;11.452;2023-03-19T09:49:56;4.60;;;3.80;;
30472;SDS011;17263;48.160;11.452;2023-03-19T09:52:29;4.03;;;3.63;;
30472;SDS011;17263;48.160;11.452;2023-03-19T09:55:04;4.93;;;3.73;;
30472;SDS011;17263;48.160;11.452;2023-03-19T09:57:39;4.60;;;3.70;;
30472;SDS011;17263;48.160;11.452;2023-03-19T10:00:39;5.10;;;3.80;;
30472;SDS011;17263;48.160;11.452;2023-03-19T10:03:05;4.53;;;3.47;;
30472;SDS011;17263;48.160;11.452;2023-03-19T10:11:49;7.30;;;4.53;;
30472;SDS011;17263;48.160;11.452;2023-03-19T10:14:29;6.17;;;3.90;;
30472;SDS011;17263;48.160;11.452;2023-03-19T10:17:37;6.27;;;3.70;;
30472;SDS011;17263;48.160;11.452;2023-03-19T10:22:58;7.37;;;4.53;;
30472;SDS011;17263;48.160;11.452;2023-03-19T10:25:39;7.27;;;4.90;;
30472;SDS011;17263;48.160;11.452;2023-03-19T10:28:13;6.93;;;5.23;;
30472;SDS011;17263;48.160;11.452;2023-03-19T10:30:41;5.57;;;4.13;;
30472;SDS011;17263;48.160;11.452;2023-03-19T10:35:57;4.37;;;3.90;;
30472;SDS011;17263;48.160;11.452;2023-03-19T10:38:30;5.13;;;3.80;;
30472;SDS011;17263;48.160;11.452;2023-03-19T10:41:03;5.33;;;4.63;;
30472;SDS011;17263;48.160;11.452;2023-03-19T10:43:59;4.60;;;4.10;;
30472;SDS011;17263;48.160;11.452;2023-03-19T10:46:39;5.23;;;4.20;;
30472;SDS011;17263;48.160;11.452;2023-03-19T10:49:12;5.00;;;4.07;;
30472;SDS011;17263;48.160;11.452;2023-03-19T10:51:41;5.80;;;4.03;;
30472;SDS011;17263;48.160;11.452;2023-03-19T10:56:53;5.90;;;4.30;;
30472;SDS011;17263;48.160;11.452;2023-03-19T10:59:22;5.80;;;4.13;;
30472;SDS011;17263;48.160;11.452;2023-03-19T11:01:55;5.63;;;4.03;;
30472;SDS011;17263;48.160;11.452;2023-03-19T11:04:42;4.27;;;3.50;;
30472;SDS011;17263;48.160;11.452;2023-03-19T11:07:09;5.03;;;4.20;;
30472;SDS011;17263;48.160;11.452;2023-03-19T11:09:38;4.50;;;4.10;;
30472;SDS011;17263;48.160;11.452;2023-03-19T11:14:41;4.97;;;4.53;;
30472;SDS011;17263;48.160;11.452;2023-03-19T11:17:15;6.83;;;4.20;;
30472;SDS011;17263;48.160;11.452;2023-03-19T11:19:54;5.67;;;4.60;;
30472;SDS011;17263;48.160;11.452;2023-03-19T11:22:23;6.03;;;3.90;;
30472;SDS011;17263;48.160;11.452;2023-03-19T11:25:01;5.30;;;3.90;;
30472;SDS011;17263;48.160;11.452;2023-03-19T11:27:38;5.27;;;3.67;;
30472;SDS011;17263;48.160;11.452;2023-03-19T11:30:17;7.40;;;4.30;;
30472;SDS011;17263;48.160;11.452;2023-03-19T11:35:37;4.77;;;4.03;;
30472;SDS011;17263;48.160;11.452;2023-03-19T11:38:12;5.30;;;4.10;;
30472;SDS011;17263;48.160;11.452;2023-03-19T11:46:21;5.20;;;4.10;;
30472;SDS011;17263;48.160;11.452;2023-03-19T11:49:30;4.83;;;3.90;;
30472;SDS011;17263;48.160;11.452;2023-03-19T11:52:07;5.23;;;4.23;;
30472;SDS011;17263;48.160;11.452;2023-03-19T11:57:46;4.57;;;4.17;;
30472;SDS011;17263;48.160;11.452;2023-03-19T12:05:55;4.37;;;3.87;;
30472;SDS011;17263;48.160;11.452;2023-03-19T12:11:53;5.40;;;3.93;;
30472;SDS011;17263;48.160;11.452;2023-03-19T12:14:40;5.17;;;4.10;;
30472;SDS011;17263;48.160;11.452;2023-03-19T12:20:22;6.30;;;4.03;;
30472;SDS011;17263;48.160;11.452;2023-03-19T12:34:35;6.67;;;4.20;;
30472;SDS011;17263;48.160;11.452;2023-03-19T12:37:29;5.80;;;3.83;;
30472;SDS011;17263;48.160;11.452;2023-03-19T12:42:50;4.87;;;3.77;;
30472;SDS011;17263;48.160;11.452;2023-03-19T12:45:22;5.23;;;4.13;;
30472;SDS011;17263;48.160;11.452;2023-03-19T12:48:03;5.43;;;4.17;;
30472;SDS011;17263;48.160;11.452;2023-03-19T12:50:35;4.70;;;4.10;;
30472;SDS011;17263;48.160;11.452;2023-03-19T12:53:04;5.53;;;4.00;;
30472;SDS011;17263;48.160;11.452;2023-03-19T12:55:40;5.30;;;3.67;;
30472;SDS011;17263;48.160;11.452;2023-03-19T12:58:19;3.90;;;3.47;;
30472;SDS011;17263;48.160;11.452;2023-03-19T13:01:11;4.53;;;3.97;;
30472;SDS011;17263;48.160;11.452;2023-03-19T13:04:02;4.27;;;3.87;;
30472;SDS011;17263;48.160;11.452;2023-03-19T13:06:33;4.43;;;3.70;;
30472;SDS011;17263;48.160;11.452;2023-03-19T13:09:04;5.07;;;3.77;;
30472;SDS011;17263;48.160;11.452;2023-03-19T13:11:43;4.83;;;3.50;;
30472;SDS011;17263;48.160;11.452;2023-03-19T13:14:20;4.87;;;3.77;;
30472;SDS011;17263;48.160;11.452;2023-03-19T13:16:56;5.67;;;3.60;;
30472;SDS011;17263;48.160;11.452;2023-03-19T13:22:12;5.57;;;3.70;;
30472;SDS011;17263;48.160;11.452;2023-03-19T13:24:41;5.20;;;3.63;;
30472;SDS011;17263;48.160;11.452;2023-03-19T13:27:20;5.17;;;3.83;;
30472;SDS011;17263;48.160;11.452;2023-03-19T13:30:11;4.87;;;3.70;;
30472;SDS011;17263;48.160;11.452;2023-03-19T13:32:40;5.00;;;3.80;;
30472;SDS011;17263;48.160;11.452;2023-03-19T13:35:16;5.80;;;4.00;;
30472;SDS011;17263;48.160;11.452;2023-03-19T13:37:55;5.10;;;3.60;;
30472;SDS011;17263;48.160;11.452;2023-03-19T13:48:46;4.07;;;3.47;;
30472;SDS011;17263;48.160;11.452;2023-03-19T13:56:26;5.50;;;3.50;;
30472;SDS011;17263;48.160;11.452;2023-03-19T14:01:39;4.67;;;3.80;;
30472;SDS011;17263;48.160;11.452;2023-03-19T14:04:16;5.63;;;4.13;;
30472;SDS011;17263;48.160;11.452;2023-03-19T14:06:56;4.93;;;3.90;;
30472;SDS011;17263;48.160;11.452;2023-03-19T14:12:29;3.97;;;3.07;;
30472;SDS011;17263;48.160;11.452;2023-03-19T14:15:00;6.03;;;3.83;;
30472;SDS011;17263;48.160;11.452;2023-03-19T14:18:00;3.80;;;3.23;;
30472;SDS011;17263;48.160;11.452;2023-03-19T14:20:27;4.37;;;3.80;;
30472;SDS011;17263;48.160;11.452;2023-03-19T14:25:55;4.57;;;3.83;;
30472;SDS011;17263;48.160;11.452;2023-03-19T14:31:29;5.33;;;3.20;;
30472;SDS011;17263;48.160;11.452;2023-03-19T14:39:37;3.77;;;3.03;;
30472;SDS011;17263;48.160;11.452;2023-03-19T14:47:41;4.20;;;3.00;;
30472;SDS011;17263;48.160;11.452;2023-03-19T14:56:15;5.23;;;3.47;;
30472;SDS011;17263;48.160;11.452;2023-03-19T14:58:46;6.93;;;3.97;;
30472;SDS011;17263;48.160;11.452;2023-03-19T15:01:13;4.27;;;3.60;;
30472;SDS011;17263;48.160;11.452;2023-03-19T15:03:39;6.70;;;3.37;;
30472;SDS011;17263;48.160;11.452;2023-03-19T15:06:06;7.83;;;4.00;;
30472;SDS011;17263;48.160;11.452;2023-03-19T15:08:37;4.57;;;3.23;;
30472;SDS011;17263;48.160;11.452;2023-03-19T15:19:24;3.73;;;3.10;;
30472;SDS011;17263;48.160;11.452;2023-03-19T15:24:53;4.17;;;3.43;;
30472;SDS011;17263;48.160;11.452;2023-03-19T15:27:28;4.30;;;3.03;;
30472;SDS011;17263;48.160;11.452;2023-03-19T15:29:54;4.80;;;2.90;;
30472;SDS011;17263;48.160;11.452;2023-03-19T15:35:03;3.53;;;2.77;;
30472;SDS011;17263;48.160;11.452;2023-03-19T15:37:30;4.47;;;2.90;;
30472;SDS011;17263;48.160;11.452;2023-03-19T15:40:02;3.13;;;2.80;;
30472;SDS011;17263;48.160;11.452;2023-03-19T15:42:32;5.63;;;3.20;;
30472;SDS011;17263;48.160;11.452;2023-03-19T15:45:06;3.63;;;2.40;;
30472;SDS011;17263;48.160;11.452;2023-03-19T15:47:34;3.60;;;2.80;;
30472;SDS011;17263;48.160;11.452;2023-03-19T15:50:11;4.57;;;2.87;;
30472;SDS011;17263;48.160;11.452;2023-03-19T15:52:42;3.00;;;2.70;;
30472;SDS011;17263;48.160;11.452;2023-03-19T15:55:15;3.80;;;2.90;;
30472;SDS011;17263;48.160;11.452;2023-03-19T15:57:42;3.67;;;3.17;;
30472;SDS011;17263;48.160;11.452;2023-03-19T16:00:09;4.23;;;3.00;;
30472;SDS011;17263;48.160;11.452;2023-03-19T16:02:39;3.90;;;2.90;;
30472;SDS011;17263;48.160;11.452;2023-03-19T16:05:06;3.87;;;2.83;;
30472;SDS011;17263;48.160;11.452;2023-03-19T16:07:49;3.50;;;3.20;;
30472;SDS011;17263;48.160;11.452;2023-03-19T16:10:39;3.80;;;2.57;;
30472;SDS011;17263;48.160;11.452;2023-03-19T16:13:20;3.57;;;2.80;;
30472;SDS011;17263;48.160;11.452;2023-03-19T16:18:53;2.60;;;2.40;;
30472;SDS011;17263;48.160;11.452;2023-03-19T16:23:56;3.97;;;2.70;;
30472;SDS011;17263;48.160;11.452;2023-03-19T16:26:37;5.40;;;2.67;;
30472;SDS011;17263;48.160;11.452;2023-03-19T16:29:19;3.23;;;2.03;;
30472;SDS011;17263;48.160;11.452;2023-03-19T16:31:52;3.33;;;2.40;;
30472;SDS011;17263;48.160;11.452;2023-03-19T16:34:40;5.27;;;3.20;;
30472;SDS011;17263;48.160;11.452;2023-03-19T16:39:53;4.47;;;3.50;;
30472;SDS011;17263;48.160;11.452;2023-03-19T16:45:07;5.07;;;2.83;;
30472;SDS011;17263;48.160;11.452;2023-03-19T16:47:42;3.87;;;2.90;;
30472;SDS011;17263;48.160;11.452;2023-03-19T16:50:09;4.37;;;2.77;;
30472;SDS011;17263;48.160;11.452;2023-03-19T16:52:36;3.30;;;2.70;;
30472;SDS011;17263;48.160;11.452;2023-03-19T16:55:04;4.80;;;3.10;;